Louis Armstrong New Orleans International Airport New Orleans US
ICAO: KMSY
IATA: MSY
Category: Large
Scheduled Services: Yes

Elevation: 4 ft
TransAlt. 18000 ft.

Airport Communications:
NEW ORLEANS APP/DEP:123.85
ATIS:127.55
CLNC DEL:127.2
GND:121.9
TWR:119.5
UNICOM:122.95

KMSY Zoom In..

If you have problems with the map follow the link
https://www.worldairports.se/pages/airport.php?
ICAO=KMSY

Runways:

(A) RW 01 length 7001 ft width 150 ft
ILS 111.70 / hdg 13

(B) RW 10 length 10104 ft width 150 ft
ILS 109.90 / hdg 103

(C) RW 19 length 7001 ft width 150 ft
LOC 111.70 / hdg 193

(D) RW 28 length 10104 ft width 150 ft
ILS 109.90 / hdg 283

Location; KMSY
Day. 18 / Time. 06.53 Zulu
* Altimeter: 30.21
* Temperature: 22° c. 71.6°f.
* Wind from: 050° Speed 13 kn with Gusts up to 18 kn.
Dewpoint: 19° c.
Visibility: 10 Statute Miles.
Clouds: Overcast 1200 ft.

KMSY 180653Z 05013G18KT 10SM OVC012 22/19 A3021 RMK AO2 SLP233 T02170194


Wind From 050°
Speed 13 kn.

 
 
jpsmedia.com for Web Design worldairports.se 2018   terms of use